sensor_id;sensor_type;location;lat;lon;timestamp;P1;durP1;ratioP1;P2;durP2;ratioP2
6852;SDS011;3465;42.144;24.722;2023-04-29T00:00:01;16.57;;;8.50;;
6852;SDS011;3465;42.144;24.722;2023-04-29T00:02:28;13.90;;;8.17;;
6852;SDS011;3465;42.144;24.722;2023-04-29T00:04:55;15.50;;;7.90;;
6852;SDS011;3465;42.144;24.722;2023-04-29T00:07:20;16.13;;;7.93;;
6852;SDS011;3465;42.144;24.722;2023-04-29T00:09:46;11.43;;;7.70;;
6852;SDS011;3465;42.144;24.722;2023-04-29T00:12:11;15.83;;;7.87;;
6852;SDS011;3465;42.144;24.722;2023-04-29T00:14:36;12.43;;;7.77;;
6852;SDS011;3465;42.144;24.722;2023-04-29T00:17:02;12.90;;;7.70;;
6852;SDS011;3465;42.144;24.722;2023-04-29T00:19:28;11.87;;;7.13;;
6852;SDS011;3465;42.144;24.722;2023-04-29T00:21:53;13.57;;;6.90;;
6852;SDS011;3465;42.144;24.722;2023-04-29T00:24:19;14.03;;;7.93;;
6852;SDS011;3465;42.144;24.722;2023-04-29T00:26:44;10.40;;;7.47;;
6852;SDS011;3465;42.144;24.722;2023-04-29T00:29:10;13.13;;;8.20;;
6852;SDS011;3465;42.144;24.722;2023-04-29T00:31:35;13.20;;;8.63;;
6852;SDS011;3465;42.144;24.722;2023-04-29T00:34:01;16.17;;;7.90;;
6852;SDS011;3465;42.144;24.722;2023-04-29T00:36:27;11.73;;;7.73;;
6852;SDS011;3465;42.144;24.722;2023-04-29T00:38:53;12.77;;;8.23;;
6852;SDS011;3465;42.144;24.722;2023-04-29T00:41:18;14.20;;;8.13;;
6852;SDS011;3465;42.144;24.722;2023-04-29T00:43:44;15.03;;;8.00;;
6852;SDS011;3465;42.144;24.722;2023-04-29T00:46:10;15.00;;;8.27;;
6852;SDS011;3465;42.144;24.722;2023-04-29T00:48:35;16.57;;;7.63;;
6852;SDS011;3465;42.144;24.722;2023-04-29T00:51:01;12.80;;;7.77;;
6852;SDS011;3465;42.144;24.722;2023-04-29T00:53:27;13.80;;;7.43;;
6852;SDS011;3465;42.144;24.722;2023-04-29T00:55:54;11.67;;;7.30;;
6852;SDS011;3465;42.144;24.722;2023-04-29T00:58:20;10.23;;;7.10;;
6852;SDS011;3465;42.144;24.722;2023-04-29T01:00:46;12.13;;;7.67;;
6852;SDS011;3465;42.144;24.722;2023-04-29T01:03:13;9.97;;;6.80;;
6852;SDS011;3465;42.144;24.722;2023-04-29T01:05:39;11.20;;;6.87;;
6852;SDS011;3465;42.144;24.722;2023-04-29T01:10:51;14.63;;;6.90;;
6852;SDS011;3465;42.144;24.722;2023-04-29T01:13:29;9.80;;;6.93;;
6852;SDS011;3465;42.144;24.722;2023-04-29T01:21:05;11.63;;;7.40;;
6852;SDS011;3465;42.144;24.722;2023-04-29T01:23:30;13.33;;;7.30;;
6852;SDS011;3465;42.144;24.722;2023-04-29T01:25:56;11.77;;;7.27;;
6852;SDS011;3465;42.144;24.722;2023-04-29T01:28:39;12.70;;;6.83;;
6852;SDS011;3465;42.144;24.722;2023-04-29T01:31:24;12.83;;;6.73;;
6852;SDS011;3465;42.144;24.722;2023-04-29T01:34:21;13.43;;;7.57;;
6852;SDS011;3465;42.144;24.722;2023-04-29T01:37:09;10.83;;;7.00;;
6852;SDS011;3465;42.144;24.722;2023-04-29T01:39:45;10.83;;;7.10;;
6852;SDS011;3465;42.144;24.722;2023-04-29T01:45:10;15.90;;;7.93;;
6852;SDS011;3465;42.144;24.722;2023-04-29T01:47:38;12.37;;;7.60;;
6852;SDS011;3465;42.144;24.722;2023-04-29T01:50:05;11.63;;;7.40;;
6852;SDS011;3465;42.144;24.722;2023-04-29T01:52:31;14.03;;;8.07;;
6852;SDS011;3465;42.144;24.722;2023-04-29T01:54:56;10.90;;;7.40;;
6852;SDS011;3465;42.144;24.722;2023-04-29T01:57:21;13.27;;;7.80;;
6852;SDS011;3465;42.144;24.722;2023-04-29T01:59:47;11.10;;;7.77;;
6852;SDS011;3465;42.144;24.722;2023-04-29T02:02:12;13.80;;;7.20;;
6852;SDS011;3465;42.144;24.722;2023-04-29T02:04:39;10.67;;;7.17;;
6852;SDS011;3465;42.144;24.722;2023-04-29T02:07:04;12.20;;;8.07;;
6852;SDS011;3465;42.144;24.722;2023-04-29T02:09:30;12.47;;;7.77;;
6852;SDS011;3465;42.144;24.722;2023-04-29T02:11:55;13.83;;;7.53;;
6852;SDS011;3465;42.144;24.722;2023-04-29T02:14:21;12.20;;;7.20;;
6852;SDS011;3465;42.144;24.722;2023-04-29T02:16:46;15.00;;;7.70;;
6852;SDS011;3465;42.144;24.722;2023-04-29T02:19:12;12.83;;;7.70;;
6852;SDS011;3465;42.144;24.722;2023-04-29T02:21:37;11.80;;;7.30;;
6852;SDS011;3465;42.144;24.722;2023-04-29T02:24:04;9.47;;;7.30;;
6852;SDS011;3465;42.144;24.722;2023-04-29T02:26:30;12.00;;;7.50;;
6852;SDS011;3465;42.144;24.722;2023-04-29T02:28:56;13.83;;;7.00;;
6852;SDS011;3465;42.144;24.722;2023-04-29T02:31:21;13.63;;;7.43;;
6852;SDS011;3465;42.144;24.722;2023-04-29T02:33:47;17.23;;;7.20;;
6852;SDS011;3465;42.144;24.722;2023-04-29T02:36:12;10.13;;;6.30;;
6852;SDS011;3465;42.144;24.722;2023-04-29T02:38:38;17.27;;;7.37;;
6852;SDS011;3465;42.144;24.722;2023-04-29T02:41:03;10.03;;;7.50;;
6852;SDS011;3465;42.144;24.722;2023-04-29T02:43:28;11.90;;;6.97;;
6852;SDS011;3465;42.144;24.722;2023-04-29T02:45:55;13.10;;;7.40;;
6852;SDS011;3465;42.144;24.722;2023-04-29T02:48:21;12.47;;;7.60;;
6852;SDS011;3465;42.144;24.722;2023-04-29T02:50:46;14.17;;;8.07;;
6852;SDS011;3465;42.144;24.722;2023-04-29T02:53:11;17.43;;;8.23;;
6852;SDS011;3465;42.144;24.722;2023-04-29T02:55:37;15.33;;;7.87;;
6852;SDS011;3465;42.144;24.722;2023-04-29T02:58:02;13.30;;;7.30;;
6852;SDS011;3465;42.144;24.722;2023-04-29T03:00:28;11.30;;;7.77;;
6852;SDS011;3465;42.144;24.722;2023-04-29T03:02:54;13.33;;;8.43;;
6852;SDS011;3465;42.144;24.722;2023-04-29T03:05:20;12.60;;;8.33;;
6852;SDS011;3465;42.144;24.722;2023-04-29T03:07:45;15.97;;;8.43;;
6852;SDS011;3465;42.144;24.722;2023-04-29T03:10:11;10.80;;;7.90;;
6852;SDS011;3465;42.144;24.722;2023-04-29T03:12:36;13.43;;;7.93;;
6852;SDS011;3465;42.144;24.722;2023-04-29T03:15:03;10.97;;;8.07;;
6852;SDS011;3465;42.144;24.722;2023-04-29T03:17:30;12.07;;;8.37;;
6852;SDS011;3465;42.144;24.722;2023-04-29T03:19:56;13.20;;;8.03;;
6852;SDS011;3465;42.144;24.722;2023-04-29T03:22:22;15.13;;;8.73;;
6852;SDS011;3465;42.144;24.722;2023-04-29T03:24:47;14.60;;;8.87;;
6852;SDS011;3465;42.144;24.722;2023-04-29T03:27:13;14.30;;;8.80;;
6852;SDS011;3465;42.144;24.722;2023-04-29T03:29:38;13.53;;;8.50;;
6852;SDS011;3465;42.144;24.722;2023-04-29T03:32:03;15.70;;;9.10;;
6852;SDS011;3465;42.144;24.722;2023-04-29T03:34:29;14.77;;;9.33;;
6852;SDS011;3465;42.144;24.722;2023-04-29T03:36:54;16.80;;;9.87;;
6852;SDS011;3465;42.144;24.722;2023-04-29T03:39:22;15.30;;;9.13;;
6852;SDS011;3465;42.144;24.722;2023-04-29T03:41:48;16.13;;;9.53;;
6852;SDS011;3465;42.144;24.722;2023-04-29T03:44:13;14.37;;;9.40;;
6852;SDS011;3465;42.144;24.722;2023-04-29T03:46:39;18.80;;;9.23;;
6852;SDS011;3465;42.144;24.722;2023-04-29T03:49:04;17.40;;;9.67;;
6852;SDS011;3465;42.144;24.722;2023-04-29T03:51:30;18.57;;;9.23;;
6852;SDS011;3465;42.144;24.722;2023-04-29T03:53:55;12.93;;;8.90;;
6852;SDS011;3465;42.144;24.722;2023-04-29T03:56:21;16.50;;;8.57;;
6852;SDS011;3465;42.144;24.722;2023-04-29T03:58:47;14.93;;;9.23;;
6852;SDS011;3465;42.144;24.722;2023-04-29T04:01:13;16.90;;;9.27;;
6852;SDS011;3465;42.144;24.722;2023-04-29T04:03:39;15.30;;;8.73;;
6852;SDS011;3465;42.144;24.722;2023-04-29T04:06:04;18.50;;;10.00;;
6852;SDS011;3465;42.144;24.722;2023-04-29T04:08:30;14.97;;;8.40;;
6852;SDS011;3465;42.144;24.722;2023-04-29T04:10:55;18.27;;;9.93;;
6852;SDS011;3465;42.144;24.722;2023-04-29T04:13:26;14.17;;;9.13;;
6852;SDS011;3465;42.144;24.722;2023-04-29T04:15:52;16.70;;;9.40;;
6852;SDS011;3465;42.144;24.722;2023-04-29T04:18:18;16.10;;;8.93;;
6852;SDS011;3465;42.144;24.722;2023-04-29T04:20:43;20.80;;;9.57;;
6852;SDS011;3465;42.144;24.722;2023-04-29T04:23:08;15.90;;;8.77;;
6852;SDS011;3465;42.144;24.722;2023-04-29T04:25:34;13.90;;;9.13;;
6852;SDS011;3465;42.144;24.722;2023-04-29T04:27:59;12.30;;;7.97;;
6852;SDS011;3465;42.144;24.722;2023-04-29T04:30:24;13.47;;;8.77;;
6852;SDS011;3465;42.144;24.722;2023-04-29T04:32:50;17.20;;;9.87;;
6852;SDS011;3465;42.144;24.722;2023-04-29T04:35:15;21.37;;;9.63;;
6852;SDS011;3465;42.144;24.722;2023-04-29T04:37:41;20.10;;;9.23;;
6852;SDS011;3465;42.144;24.722;2023-04-29T04:40:06;16.27;;;8.63;;
6852;SDS011;3465;42.144;24.722;2023-04-29T04:42:33;15.60;;;8.00;;
6852;SDS011;3465;42.144;24.722;2023-04-29T04:44:58;13.07;;;7.53;;
6852;SDS011;3465;42.144;24.722;2023-04-29T04:47:24;15.73;;;8.07;;
6852;SDS011;3465;42.144;24.722;2023-04-29T04:49:49;15.30;;;7.83;;
6852;SDS011;3465;42.144;24.722;2023-04-29T04:52:18;14.77;;;7.80;;
6852;SDS011;3465;42.144;24.722;2023-04-29T04:54:45;15.13;;;9.10;;
6852;SDS011;3465;42.144;24.722;2023-04-29T04:57:10;14.70;;;8.40;;
6852;SDS011;3465;42.144;24.722;2023-04-29T04:59:35;17.43;;;8.23;;
6852;SDS011;3465;42.144;24.722;2023-04-29T05:02:01;21.50;;;8.67;;
6852;SDS011;3465;42.144;24.722;2023-04-29T05:04:26;15.20;;;8.63;;
6852;SDS011;3465;42.144;24.722;2023-04-29T05:06:51;18.20;;;8.77;;
6852;SDS011;3465;42.144;24.722;2023-04-29T05:09:17;14.90;;;7.93;;
6852;SDS011;3465;42.144;24.722;2023-04-29T05:11:42;15.87;;;8.13;;
6852;SDS011;3465;42.144;24.722;2023-04-29T05:14:08;15.10;;;7.93;;
6852;SDS011;3465;42.144;24.722;2023-04-29T05:16:33;16.53;;;8.00;;
6852;SDS011;3465;42.144;24.722;2023-04-29T05:18:58;16.90;;;7.17;;
6852;SDS011;3465;42.144;24.722;2023-04-29T05:21:24;9.30;;;6.37;;
6852;SDS011;3465;42.144;24.722;2023-04-29T05:23:49;10.53;;;5.93;;
6852;SDS011;3465;42.144;24.722;2023-04-29T05:26:15;10.33;;;6.23;;
6852;SDS011;3465;42.144;24.722;2023-04-29T05:28:40;12.63;;;6.10;;
6852;SDS011;3465;42.144;24.722;2023-04-29T05:31:06;10.50;;;6.07;;
6852;SDS011;3465;42.144;24.722;2023-04-29T05:33:31;9.47;;;6.20;;
6852;SDS011;3465;42.144;24.722;2023-04-29T05:35:56;11.40;;;6.53;;
6852;SDS011;3465;42.144;24.722;2023-04-29T05:38:22;9.53;;;6.30;;
6852;SDS011;3465;42.144;24.722;2023-04-29T05:40:52;13.47;;;6.13;;
6852;SDS011;3465;42.144;24.722;2023-04-29T05:43:19;11.03;;;6.30;;
6852;SDS011;3465;42.144;24.722;2023-04-29T05:45:47;9.83;;;5.50;;
6852;SDS011;3465;42.144;24.722;2023-04-29T05:48:13;11.30;;;6.20;;
6852;SDS011;3465;42.144;24.722;2023-04-29T05:50:38;13.63;;;5.87;;
6852;SDS011;3465;42.144;24.722;2023-04-29T05:53:04;9.63;;;5.90;;
6852;SDS011;3465;42.144;24.722;2023-04-29T05:55:29;9.77;;;5.33;;
6852;SDS011;3465;42.144;24.722;2023-04-29T05:57:55;11.10;;;5.10;;
6852;SDS011;3465;42.144;24.722;2023-04-29T06:00:20;10.13;;;5.03;;
6852;SDS011;3465;42.144;24.722;2023-04-29T06:02:46;7.37;;;4.60;;
6852;SDS011;3465;42.144;24.722;2023-04-29T06:05:11;8.37;;;5.30;;
6852;SDS011;3465;42.144;24.722;2023-04-29T06:07:38;19.23;;;5.43;;
6852;SDS011;3465;42.144;24.722;2023-04-29T06:10:04;8.50;;;4.40;;
6852;SDS011;3465;42.144;24.722;2023-04-29T06:12:30;10.43;;;4.78;;
6852;SDS011;3465;42.144;24.722;2023-04-29T06:14:56;10.98;;;5.25;;
6852;SDS011;3465;42.144;24.722;2023-04-29T06:17:21;10.10;;;4.95;;
6852;SDS011;3465;42.144;24.722;2023-04-29T06:19:47;9.82;;;4.65;;
6852;SDS011;3465;42.144;24.722;2023-04-29T06:22:12;8.52;;;5.00;;
6852;SDS011;3465;42.144;24.722;2023-04-29T06:24:37;8.93;;;4.63;;
6852;SDS011;3465;42.144;24.722;2023-04-29T06:27:03;11.38;;;5.25;;
6852;SDS011;3465;42.144;24.722;2023-04-29T06:29:28;10.27;;;5.97;;
6852;SDS011;3465;42.144;24.722;2023-04-29T06:31:54;13.52;;;6.45;;
6852;SDS011;3465;42.144;24.722;2023-04-29T06:34:20;9.10;;;6.50;;
6852;SDS011;3465;42.144;24.722;2023-04-29T06:36:45;10.60;;;5.00;;
6852;SDS011;3465;42.144;24.722;2023-04-29T06:39:11;10.10;;;4.50;;
6852;SDS011;3465;42.144;24.722;2023-04-29T06:41:36;6.07;;;3.63;;
6852;SDS011;3465;42.144;24.722;2023-04-29T06:44:02;6.07;;;3.40;;
6852;SDS011;3465;42.144;24.722;2023-04-29T06:46:27;7.80;;;3.58;;
6852;SDS011;3465;42.144;24.722;2023-04-29T06:48:53;5.05;;;3.10;;
6852;SDS011;3465;42.144;24.722;2023-04-29T06:51:19;7.78;;;3.42;;
6852;SDS011;3465;42.144;24.722;2023-04-29T06:53:44;6.45;;;3.40;;
6852;SDS011;3465;42.144;24.722;2023-04-29T06:56:10;10.75;;;3.90;;
6852;SDS011;3465;42.144;24.722;2023-04-29T06:58:36;7.82;;;3.45;;
6852;SDS011;3465;42.144;24.722;2023-04-29T07:01:02;5.32;;;3.40;;
6852;SDS011;3465;42.144;24.722;2023-04-29T07:03:28;9.35;;;3.20;;
6852;SDS011;3465;42.144;24.722;2023-04-29T07:05:54;9.15;;;4.03;;
6852;SDS011;3465;42.144;24.722;2023-04-29T07:08:19;12.40;;;3.50;;
6852;SDS011;3465;42.144;24.722;2023-04-29T07:10:52;6.38;;;3.20;;
6852;SDS011;3465;42.144;24.722;2023-04-29T07:13:19;5.65;;;2.90;;
6852;SDS011;3465;42.144;24.722;2023-04-29T07:15:44;5.13;;;3.00;;
6852;SDS011;3465;42.144;24.722;2023-04-29T07:18:10;7.07;;;2.72;;
6852;SDS011;3465;42.144;24.722;2023-04-29T07:20:36;10.10;;;2.78;;
6852;SDS011;3465;42.144;24.722;2023-04-29T07:23:01;5.72;;;3.10;;
6852;SDS011;3465;42.144;24.722;2023-04-29T07:25:26;6.63;;;3.28;;
6852;SDS011;3465;42.144;24.722;2023-04-29T07:27:53;5.50;;;3.08;;
6852;SDS011;3465;42.144;24.722;2023-04-29T07:30:19;6.80;;;2.95;;
6852;SDS011;3465;42.144;24.722;2023-04-29T07:32:45;5.38;;;3.10;;
6852;SDS011;3465;42.144;24.722;2023-04-29T07:35:10;4.28;;;2.65;;
6852;SDS011;3465;42.144;24.722;2023-04-29T07:37:35;6.72;;;3.20;;
6852;SDS011;3465;42.144;24.722;2023-04-29T07:40:01;3.50;;;2.83;;
6852;SDS011;3465;42.144;24.722;2023-04-29T07:42:26;22.17;;;3.33;;
6852;SDS011;3465;42.144;24.722;2023-04-29T07:44:51;5.22;;;3.17;;
6852;SDS011;3465;42.144;24.722;2023-04-29T07:47:17;5.95;;;3.10;;
6852;SDS011;3465;42.144;24.722;2023-04-29T07:49:42;5.00;;;2.75;;
6852;SDS011;3465;42.144;24.722;2023-04-29T07:52:08;5.07;;;3.05;;
6852;SDS011;3465;42.144;24.722;2023-04-29T07:54:34;5.70;;;2.70;;
6852;SDS011;3465;42.144;24.722;2023-04-29T07:57:00;7.28;;;3.85;;
6852;SDS011;3465;42.144;24.722;2023-04-29T07:59:27;6.72;;;3.33;;
6852;SDS011;3465;42.144;24.722;2023-04-29T08:01:53;10.05;;;3.63;;
6852;SDS011;3465;42.144;24.722;2023-04-29T08:04:19;7.43;;;3.20;;
6852;SDS011;3465;42.144;24.722;2023-04-29T08:06:45;7.07;;;3.00;;
6852;SDS011;3465;42.144;24.722;2023-04-29T08:09:10;5.03;;;2.83;;
6852;SDS011;3465;42.144;24.722;2023-04-29T08:11:36;5.10;;;3.58;;
6852;SDS011;3465;42.144;24.722;2023-04-29T08:14:01;7.82;;;3.03;;
6852;SDS011;3465;42.144;24.722;2023-04-29T08:16:27;4.10;;;2.90;;
6852;SDS011;3465;42.144;24.722;2023-04-29T08:18:52;8.20;;;3.17;;
6852;SDS011;3465;42.144;24.722;2023-04-29T08:21:18;10.55;;;3.55;;
6852;SDS011;3465;42.144;24.722;2023-04-29T08:23:44;10.73;;;3.25;;
6852;SDS011;3465;42.144;24.722;2023-04-29T08:26:09;4.40;;;3.00;;
6852;SDS011;3465;42.144;24.722;2023-04-29T08:28:37;3.97;;;2.95;;
6852;SDS011;3465;42.144;24.722;2023-04-29T08:31:03;5.18;;;3.10;;
6852;SDS011;3465;42.144;24.722;2023-04-29T08:33:31;5.45;;;2.97;;
6852;SDS011;3465;42.144;24.722;2023-04-29T08:35:57;8.48;;;3.25;;
6852;SDS011;3465;42.144;24.722;2023-04-29T08:38:24;6.13;;;2.83;;
6852;SDS011;3465;42.144;24.722;2023-04-29T08:40:50;6.57;;;3.03;;
6852;SDS011;3465;42.144;24.722;2023-04-29T08:43:15;4.45;;;3.00;;
6852;SDS011;3465;42.144;24.722;2023-04-29T08:45:43;6.70;;;3.20;;
6852;SDS011;3465;42.144;24.722;2023-04-29T08:48:11;7.78;;;3.28;;
6852;SDS011;3465;42.144;24.722;2023-04-29T08:50:37;11.68;;;3.05;;
6852;SDS011;3465;42.144;24.722;2023-04-29T08:53:13;5.68;;;3.40;;
6852;SDS011;3465;42.144;24.722;2023-04-29T08:55:43;7.57;;;3.50;;
6852;SDS011;3465;42.144;24.722;2023-04-29T08:58:09;11.02;;;3.97;;
6852;SDS011;3465;42.144;24.722;2023-04-29T09:00:36;6.53;;;3.45;;
6852;SDS011;3465;42.144;24.722;2023-04-29T09:03:10;6.63;;;3.08;;
6852;SDS011;3465;42.144;24.722;2023-04-29T09:05:39;5.63;;;2.92;;
6852;SDS011;3465;42.144;24.722;2023-04-29T09:08:05;8.95;;;3.55;;
6852;SDS011;3465;42.144;24.722;2023-04-29T09:10:32;5.35;;;3.28;;
6852;SDS011;3465;42.144;24.722;2023-04-29T09:12:59;6.68;;;2.58;;
6852;SDS011;3465;42.144;24.722;2023-04-29T09:15:34;5.47;;;3.03;;
6852;SDS011;3465;42.144;24.722;2023-04-29T09:21:33;5.10;;;2.92;;
6852;SDS011;3465;42.144;24.722;2023-04-29T09:24:00;4.45;;;2.60;;
6852;SDS011;3465;42.144;24.722;2023-04-29T09:26:26;5.10;;;3.28;;
6852;SDS011;3465;42.144;24.722;2023-04-29T09:29:07;7.53;;;2.67;;
6852;SDS011;3465;42.144;24.722;2023-04-29T09:31:38;4.72;;;2.90;;
6852;SDS011;3465;42.144;24.722;2023-04-29T09:34:04;5.13;;;2.70;;
6852;SDS011;3465;42.144;24.722;2023-04-29T09:36:42;5.90;;;3.28;;
6852;SDS011;3465;42.144;24.722;2023-04-29T09:39:16;8.20;;;3.35;;
6852;SDS011;3465;42.144;24.722;2023-04-29T09:44:15;5.68;;;2.70;;
6852;SDS011;3465;42.144;24.722;2023-04-29T09:46:41;6.53;;;3.00;;
6852;SDS011;3465;42.144;24.722;2023-04-29T09:52:12;10.50;;;3.05;;
6852;SDS011;3465;42.144;24.722;2023-04-29T09:54:40;6.78;;;2.92;;
6852;SDS011;3465;42.144;24.722;2023-04-29T09:57:08;3.75;;;2.70;;
6852;SDS011;3465;42.144;24.722;2023-04-29T09:59:38;6.10;;;2.78;;
6852;SDS011;3465;42.144;24.722;2023-04-29T10:02:14;6.70;;;3.42;;
6852;SDS011;3465;42.144;24.722;2023-04-29T10:04:45;4.72;;;3.22;;
6852;SDS011;3465;42.144;24.722;2023-04-29T10:07:15;7.10;;;3.83;;
6852;SDS011;3465;42.144;24.722;2023-04-29T10:09:42;8.93;;;3.63;;
6852;SDS011;3465;42.144;24.722;2023-04-29T10:12:09;6.53;;;3.22;;
6852;SDS011;3465;42.144;24.722;2023-04-29T10:14:40;9.32;;;3.55;;
6852;SDS011;3465;42.144;24.722;2023-04-29T10:17:10;6.47;;;3.47;;
6852;SDS011;3465;42.144;24.722;2023-04-29T10:19:52;11.63;;;4.32;;
6852;SDS011;3465;42.144;24.722;2023-04-29T10:22:32;13.93;;;3.65;;
6852;SDS011;3465;42.144;24.722;2023-04-29T10:25:12;7.25;;;3.10;;
6852;SDS011;3465;42.144;24.722;2023-04-29T10:27:44;5.60;;;3.33;;
6852;SDS011;3465;42.144;24.722;2023-04-29T10:30:13;6.78;;;3.28;;
6852;SDS011;3465;42.144;24.722;2023-04-29T10:32:40;4.13;;;3.05;;
6852;SDS011;3465;42.144;24.722;2023-04-29T10:35:08;4.57;;;3.20;;
6852;SDS011;3465;42.144;24.722;2023-04-29T10:37:35;8.90;;;3.45;;
6852;SDS011;3465;42.144;24.722;2023-04-29T10:42:45;8.07;;;3.10;;
6852;SDS011;3465;42.144;24.722;2023-04-29T10:45:19;4.35;;;3.05;;
6852;SDS011;3465;42.144;24.722;2023-04-29T10:53:04;6.30;;;3.17;;
6852;SDS011;3465;42.144;24.722;2023-04-29T10:55:30;4.93;;;3.10;;
6852;SDS011;3465;42.144;24.722;2023-04-29T10:57:56;6.10;;;3.30;;
6852;SDS011;3465;42.144;24.722;2023-04-29T11:00:25;12.55;;;3.63;;
6852;SDS011;3465;42.144;24.722;2023-04-29T11:03:04;6.78;;;3.28;;
6852;SDS011;3465;42.144;24.722;2023-04-29T11:06:07;6.38;;;3.33;;
6852;SDS011;3465;42.144;24.722;2023-04-29T11:08:36;7.35;;;3.10;;
6852;SDS011;3465;42.144;24.722;2023-04-29T11:11:03;6.78;;;3.10;;
6852;SDS011;3465;42.144;24.722;2023-04-29T11:13:31;6.25;;;3.33;;
6852;SDS011;3465;42.144;24.722;2023-04-29T11:16:05;7.85;;;3.00;;
6852;SDS011;3465;42.144;24.722;2023-04-29T11:18:32;5.45;;;3.15;;
6852;SDS011;3465;42.144;24.722;2023-04-29T11:23:33;4.88;;;2.90;;
6852;SDS011;3465;42.144;24.722;2023-04-29T11:26:03;9.23;;;3.00;;
6852;SDS011;3465;42.144;24.722;2023-04-29T11:28:29;6.15;;;2.75;;
6852;SDS011;3465;42.144;24.722;2023-04-29T11:30:56;7.15;;;2.60;;
6852;SDS011;3465;42.144;24.722;2023-04-29T11:33:22;7.95;;;2.47;;
6852;SDS011;3465;42.144;24.722;2023-04-29T11:35:49;6.05;;;2.63;;
6852;SDS011;3465;42.144;24.722;2023-04-29T11:38:15;7.10;;;2.58;;
6852;SDS011;3465;42.144;24.722;2023-04-29T11:40:41;6.07;;;2.90;;
6852;SDS011;3465;42.144;24.722;2023-04-29T11:43:15;5.07;;;2.70;;
6852;SDS011;3465;42.144;24.722;2023-04-29T11:45:44;5.90;;;2.60;;
6852;SDS011;3465;42.144;24.722;2023-04-29T11:48:23;4.45;;;2.10;;
6852;SDS011;3465;42.144;24.722;2023-04-29T11:50:53;8.27;;;2.40;;
6852;SDS011;3465;42.144;24.722;2023-04-29T11:53:23;7.72;;;2.50;;
6852;SDS011;3465;42.144;24.722;2023-04-29T11:55:53;7.40;;;2.00;;
6852;SDS011;3465;42.144;24.722;2023-04-29T11:58:20;5.97;;;2.80;;
6852;SDS011;3465;42.144;24.722;2023-04-29T12:00:46;5.63;;;2.30;;
6852;SDS011;3465;42.144;24.722;2023-04-29T12:03:13;2.85;;;2.00;;
6852;SDS011;3465;42.144;24.722;2023-04-29T12:05:44;5.75;;;1.88;;
6852;SDS011;3465;42.144;24.722;2023-04-29T12:08:20;5.95;;;2.15;;
6852;SDS011;3465;42.144;24.722;2023-04-29T12:10:46;4.57;;;1.95;;
6852;SDS011;3465;42.144;24.722;2023-04-29T12:13:12;3.80;;;1.90;;
6852;SDS011;3465;42.144;24.722;2023-04-29T12:15:38;3.58;;;2.25;;
6852;SDS011;3465;42.144;24.722;2023-04-29T12:18:04;4.15;;;2.03;;
6852;SDS011;3465;42.144;24.722;2023-04-29T12:20:29;8.88;;;2.25;;
6852;SDS011;3465;42.144;24.722;2023-04-29T12:22:55;4.95;;;2.10;;
6852;SDS011;3465;42.144;24.722;2023-04-29T12:25:25;6.60;;;2.65;;
6852;SDS011;3465;42.144;24.722;2023-04-29T12:27:57;3.40;;;2.00;;
6852;SDS011;3465;42.144;24.722;2023-04-29T12:30:23;4.20;;;2.10;;
6852;SDS011;3465;42.144;24.722;2023-04-29T12:32:50;2.33;;;1.75;;
6852;SDS011;3465;42.144;24.722;2023-04-29T12:35:16;5.32;;;2.20;;
6852;SDS011;3465;42.144;24.722;2023-04-29T12:37:42;3.75;;;2.20;;
6852;SDS011;3465;42.144;24.722;2023-04-29T12:40:12;6.03;;;2.25;;
6852;SDS011;3465;42.144;24.722;2023-04-29T12:42:39;3.20;;;2.20;;
6852;SDS011;3465;42.144;24.722;2023-04-29T12:45:05;5.70;;;2.78;;
6852;SDS011;3465;42.144;24.722;2023-04-29T12:47:31;8.50;;;2.47;;
6852;SDS011;3465;42.144;24.722;2023-04-29T12:50:01;4.25;;;2.50;;
6852;SDS011;3465;42.144;24.722;2023-04-29T12:52:26;4.90;;;2.53;;
6852;SDS011;3465;42.144;24.722;2023-04-29T12:54:52;5.40;;;2.70;;
6852;SDS011;3465;42.144;24.722;2023-04-29T12:57:17;3.78;;;2.38;;
6852;SDS011;3465;42.144;24.722;2023-04-29T12:59:43;5.03;;;2.75;;
6852;SDS011;3465;42.144;24.722;2023-04-29T13:02:08;4.32;;;2.30;;
6852;SDS011;3465;42.144;24.722;2023-04-29T13:04:33;5.55;;;2.40;;
6852;SDS011;3465;42.144;24.722;2023-04-29T13:06:59;4.10;;;2.40;;
6852;SDS011;3465;42.144;24.722;2023-04-29T13:09:26;8.95;;;2.83;;
6852;SDS011;3465;42.144;24.722;2023-04-29T13:11:52;8.07;;;2.83;;
6852;SDS011;3465;42.144;24.722;2023-04-29T13:14:17;5.43;;;2.92;;
6852;SDS011;3465;42.144;24.722;2023-04-29T13:16:43;11.10;;;5.13;;
6852;SDS011;3465;42.144;24.722;2023-04-29T13:19:09;5.35;;;2.90;;
6852;SDS011;3465;42.144;24.722;2023-04-29T13:21:34;13.60;;;3.42;;
6852;SDS011;3465;42.144;24.722;2023-04-29T13:24:00;8.60;;;4.53;;
6852;SDS011;3465;42.144;24.722;2023-04-29T13:26:25;7.97;;;3.20;;
6852;SDS011;3465;42.144;24.722;2023-04-29T13:28:51;4.82;;;2.60;;
6852;SDS011;3465;42.144;24.722;2023-04-29T13:31:16;5.00;;;2.60;;
6852;SDS011;3465;42.144;24.722;2023-04-29T13:33:42;8.65;;;3.88;;
6852;SDS011;3465;42.144;24.722;2023-04-29T13:36:07;3.92;;;2.60;;
6852;SDS011;3465;42.144;24.722;2023-04-29T13:38:33;4.88;;;2.90;;
6852;SDS011;3465;42.144;24.722;2023-04-29T13:40:59;8.52;;;2.90;;
6852;SDS011;3465;42.144;24.722;2023-04-29T13:43:24;5.18;;;2.92;;
6852;SDS011;3465;42.144;24.722;2023-04-29T13:45:50;8.77;;;3.00;;
6852;SDS011;3465;42.144;24.722;2023-04-29T13:48:15;4.40;;;2.63;;
6852;SDS011;3465;42.144;24.722;2023-04-29T13:50:41;9.52;;;2.70;;
6852;SDS011;3465;42.144;24.722;2023-04-29T13:53:06;5.35;;;2.67;;
6852;SDS011;3465;42.144;24.722;2023-04-29T13:55:32;5.45;;;2.70;;
6852;SDS011;3465;42.144;24.722;2023-04-29T13:57:59;4.38;;;2.75;;
6852;SDS011;3465;42.144;24.722;2023-04-29T14:00:26;6.95;;;3.00;;
6852;SDS011;3465;42.144;24.722;2023-04-29T14:02:51;5.68;;;2.78;;
6852;SDS011;3465;42.144;24.722;2023-04-29T14:05:16;3.38;;;2.50;;
6852;SDS011;3465;42.144;24.722;2023-04-29T14:07:42;7.90;;;3.38;;
6852;SDS011;3465;42.144;24.722;2023-04-29T14:10:07;5.32;;;3.00;;
6852;SDS011;3465;42.144;24.722;2023-04-29T14:12:33;7.75;;;2.90;;
6852;SDS011;3465;42.144;24.722;2023-04-29T14:14:58;10.13;;;2.92;;
6852;SDS011;3465;42.144;24.722;2023-04-29T14:17:24;5.97;;;2.80;;
6852;SDS011;3465;42.144;24.722;2023-04-29T14:19:49;6.47;;;2.80;;
6852;SDS011;3465;42.144;24.722;2023-04-29T14:22:14;6.03;;;2.63;;
6852;SDS011;3465;42.144;24.722;2023-04-29T14:24:40;5.72;;;2.80;;
6852;SDS011;3465;42.144;24.722;2023-04-29T14:27:06;5.95;;;2.50;;
6852;SDS011;3465;42.144;24.722;2023-04-29T14:29:31;7.10;;;2.88;;
6852;SDS011;3465;42.144;24.722;2023-04-29T14:31:56;6.35;;;2.90;;
6852;SDS011;3465;42.144;24.722;2023-04-29T14:34:22;4.40;;;2.67;;
6852;SDS011;3465;42.144;24.722;2023-04-29T14:36:47;5.20;;;2.53;;
6852;SDS011;3465;42.144;24.722;2023-04-29T14:39:12;5.55;;;2.50;;
6852;SDS011;3465;42.144;24.722;2023-04-29T14:41:38;6.43;;;2.97;;
6852;SDS011;3465;42.144;24.722;2023-04-29T14:44:04;9.52;;;2.80;;
6852;SDS011;3465;42.144;24.722;2023-04-29T14:46:32;5.07;;;2.50;;
6852;SDS011;3465;42.144;24.722;2023-04-29T14:48:58;3.80;;;2.50;;
6852;SDS011;3465;42.144;24.722;2023-04-29T14:51:23;5.35;;;2.78;;
6852;SDS011;3465;42.144;24.722;2023-04-29T14:53:49;6.93;;;2.90;;
6852;SDS011;3465;42.144;24.722;2023-04-29T14:56:16;3.70;;;2.50;;
6852;SDS011;3465;42.144;24.722;2023-04-29T14:58:41;4.43;;;2.47;;
6852;SDS011;3465;42.144;24.722;2023-04-29T15:01:07;7.72;;;2.65;;
6852;SDS011;3465;42.144;24.722;2023-04-29T15:03:32;6.60;;;2.95;;
6852;SDS011;3465;42.144;24.722;2023-04-29T15:05:59;4.55;;;2.50;;
6852;SDS011;3465;42.144;24.722;2023-04-29T15:08:27;7.07;;;2.70;;
6852;SDS011;3465;42.144;24.722;2023-04-29T15:10:53;4.88;;;2.50;;
6852;SDS011;3465;42.144;24.722;2023-04-29T15:13:18;6.40;;;2.50;;
6852;SDS011;3465;42.144;24.722;2023-04-29T15:15:44;6.85;;;3.10;;
6852;SDS011;3465;42.144;24.722;2023-04-29T15:18:09;6.07;;;2.50;;
6852;SDS011;3465;42.144;24.722;2023-04-29T15:20:35;4.80;;;2.60;;
6852;SDS011;3465;42.144;24.722;2023-04-29T15:23:01;4.13;;;2.38;;